Time;durP1;ratioP1;P1;durP2;ratioP2;P2;SDS_P1;SDS_P2;PMS_P1;PMS_P2;Temp;Humidity;BMP_temperature;BMP_pressure;BME280_temperature;BME280_humidity;BME280_pressure;Samples;Min_cycle;Max_cycle;Signal;HPM_P1;HPM_P2
2021/03/01 00:02:18;;;;;;;9.18;4.50;;;;;;;4.98;55.64;102071.09;5094656;28;20047;-72
2021/03/01 00:05:23;;;;;;;10.02;4.15;;;;;;;4.99;55.46;102075.47;5104632;28;20050;-73
2021/03/01 00:08:28;;;;;;;6.95;4.25;;;;;;;4.92;55.83;102075.75;5088032;28;20059;-73
2021/03/01 00:11:33;;;;;;;10.85;4.25;;;;;;;4.86;55.74;102073.31;5073124;28;20051;-73
2021/03/01 00:14:37;;;;;;;8.25;4.30;;;;;;;4.85;55.94;102072.44;5073704;28;20521;-73
2021/03/01 00:17:42;;;;;;;6.82;3.72;;;;;;;4.82;55.89;102071.69;5084872;28;20067;-73
2021/03/01 00:20:46;;;;;;;6.93;4.15;;;;;;;4.73;56.04;102075.56;5074081;28;20482;-73
2021/03/01 00:23:50;;;;;;;7.63;4.40;;;;;;;4.71;56.33;102082.75;5074974;28;20498;-71
2021/03/01 00:26:54;;;;;;;7.57;4.35;;;;;;;4.70;56.34;102069.47;5077891;28;20059;-71
2021/03/01 00:29:59;;;;;;;8.63;4.50;;;;;;;4.60;56.29;102075.13;5087907;28;20047;-78
2021/03/01 00:33:04;;;;;;;6.68;4.43;;;;;;;4.63;56.88;102084.78;5085397;28;20391;-76
2021/03/01 00:36:08;;;;;;;9.45;4.32;;;;;;;4.59;56.67;102076.03;5077824;28;20052;-81
2021/03/01 00:39:12;;;;;;;9.90;4.20;;;;;;;4.56;56.47;102078.84;5084671;28;20055;-76
2021/03/01 00:42:16;;;;;;;7.50;3.58;;;;;;;4.53;56.70;102076.28;5097858;28;20494;-74
2021/03/01 00:45:24;;;;;;;7.30;3.95;;;;;;;4.51;56.67;102072.81;5093521;28;20051;-80
2021/03/01 00:48:28;;;;;;;10.18;4.22;;;;;;;4.51;56.45;102075.47;5093074;28;20051;-80
2021/03/01 00:51:32;;;;;;;8.45;4.60;;;;;;;4.52;56.12;102073.66;5077501;28;20056;-74
2021/03/01 00:54:38;;;;;;;9.07;4.28;;;;;;;4.56;55.93;102072.66;5076504;28;20055;-78
2021/03/01 00:57:42;;;;;;;9.27;4.32;;;;;;;4.57;55.63;102083.22;5076578;28;20063;-76
2021/03/01 01:00:52;;;;;;;7.53;4.32;;;;;;;4.55;55.92;102076.22;5090022;28;20055;-74
2021/03/01 01:03:57;;;;;;;7.55;3.95;;;;;;;4.58;55.62;102065.47;5084225;28;20047;-80
2021/03/01 01:07:08;;;;;;;6.63;4.03;;;;;;;4.53;55.74;102068.31;5090083;28;20047;-81
2021/03/01 01:10:12;;;;;;;6.35;3.40;;;;;;;4.51;55.49;102071.94;5097539;28;20047;-76
2021/03/01 01:13:16;;;;;;;7.25;4.20;;;;;;;4.49;55.35;102069.31;5097199;28;20055;-71
2021/03/01 01:16:20;;;;;;;6.35;3.92;;;;;;;4.48;55.35;102070.25;5099402;28;20059;-75
2021/03/01 01:19:25;;;;;;;7.75;3.50;;;;;;;4.50;55.44;102068.41;5117523;28;20378;-71
2021/03/01 01:22:29;;;;;;;8.80;3.75;;;;;;;4.51;55.22;102063.97;5104955;28;20051;-72
2021/03/01 01:25:33;;;;;;;6.65;3.65;;;;;;;4.52;54.66;102066.56;5114641;28;20068;-72
2021/03/01 01:28:37;;;;;;;;;;;;;;;4.51;54.65;102062.19;5112616;28;20043;-71
2021/03/01 01:31:41;;;;;;;7.70;4.28;;;;;;;4.49;54.93;102056.03;5072884;28;19916;-72
2021/03/01 01:34:45;;;;;;;8.30;4.38;;;;;;;4.50;54.77;102051.56;5096987;28;20051;-73
2021/03/01 01:37:50;;;;;;;9.63;4.70;;;;;;;4.47;54.71;102047.22;5102717;28;20042;-71
2021/03/01 01:40:54;;;;;;;8.95;4.15;;;;;;;4.50;54.52;102046.25;5117315;28;20383;-73
2021/03/01 01:43:58;;;;;;;9.15;3.63;;;;;;;4.51;54.46;102054.19;5112515;28;20051;-72
2021/03/01 01:47:02;;;;;;;6.40;3.88;;;;;;;4.47;54.51;102041.03;5086952;28;20047;-78
2021/03/01 01:50:09;;;;;;;11.80;3.70;;;;;;;4.46;54.43;102034.00;5113852;28;20046;-77
2021/03/01 01:53:13;;;;;;;6.65;3.30;;;;;;;4.44;54.50;102036.69;5096055;28;20051;-76
2021/03/01 01:56:17;;;;;;;7.68;3.85;;;;;;;4.41;54.48;102034.19;5084075;28;20549;-79
2021/03/01 01:59:21;;;;;;;6.95;4.00;;;;;;;4.41;54.61;102031.53;5112629;28;20046;-77
2021/03/01 02:02:26;;;;;;;7.60;4.03;;;;;;;4.39;54.66;102029.84;5115849;28;20047;-81
2021/03/01 02:05:32;;;;;;;11.18;3.80;;;;;;;4.39;54.59;102022.75;5106654;28;20058;-81
2021/03/01 02:08:56;;;;;;;6.43;3.47;;;;;;;4.35;54.58;102026.41;5074761;28;20503;-77
2021/03/01 02:12:38;;;;;;;5.72;3.38;;;;;;;4.32;54.54;102025.66;5091000;28;20059;-77
2021/03/01 02:15:50;;;;;;;8.18;3.95;;;;;;;4.33;54.46;102022.06;5096101;28;20043;-81
2021/03/01 02:18:54;;;;;;;5.70;3.72;;;;;;;4.34;54.54;102015.84;5095987;28;20047;-80
2021/03/01 02:21:58;;;;;;;13.75;3.90;;;;;;;4.41;54.30;102026.22;5108020;28;20059;-79
2021/03/01 02:25:10;;;;;;;;;;;;;;;4.38;54.04;102025.44;5092183;28;20067;-79
2021/03/01 02:28:16;;;;;;;9.63;3.72;;;;;;;4.33;54.49;102017.63;5075909;28;19916;-77
2021/03/01 02:31:25;;;;;;;6.80;3.38;;;;;;;4.38;54.10;102023.66;5083040;28;20055;-79
2021/03/01 02:34:34;;;;;;;6.38;3.45;;;;;;;4.35;54.14;102025.53;5094887;28;20047;-78
2021/03/01 02:37:40;;;;;;;5.35;3.35;;;;;;;4.32;54.06;102026.50;5094855;28;20051;-78
2021/03/01 02:40:45;;;;;;;9.75;3.35;;;;;;;4.31;54.34;102021.25;5094744;28;20055;-73
2021/03/01 02:43:51;;;;;;;6.45;3.45;;;;;;;4.32;54.18;102025.66;5093046;28;20051;-72
2021/03/01 02:46:57;;;;;;;6.80;3.65;;;;;;;4.31;54.15;102019.47;5073627;28;20055;-74
2021/03/01 02:50:02;;;;;;;8.45;4.07;;;;;;;4.28;54.50;102016.91;5075448;28;20130;-71
2021/03/01 02:53:07;;;;;;;6.18;3.45;;;;;;;4.26;54.00;102009.91;5087741;28;20051;-72
2021/03/01 02:56:16;;;;;;;6.07;3.55;;;;;;;4.27;53.92;102017.81;5095521;28;20047;-73
2021/03/01 02:59:23;;;;;;;10.13;4.00;;;;;;;4.27;54.14;102017.00;5094173;28;20051;-72
2021/03/01 03:02:30;;;;;;;11.38;4.25;;;;;;;4.28;54.10;102008.94;5084637;28;20055;-72
2021/03/01 03:05:35;;;;;;;7.85;4.30;;;;;;;4.27;54.46;102012.50;5103251;27;20055;-76
2021/03/01 03:08:40;;;;;;;8.25;3.97;;;;;;;4.31;54.10;102015.94;5107601;28;20051;-76
2021/03/01 03:11:46;;;;;;;8.85;4.18;;;;;;;4.29;54.03;102010.69;5094725;28;20074;-80
2021/03/01 03:14:52;;;;;;;7.63;4.07;;;;;;;4.23;53.87;102013.56;5082506;28;20051;-79
2021/03/01 03:17:59;;;;;;;8.93;4.45;;;;;;;4.21;53.82;102011.88;5094893;28;20054;-80
2021/03/01 03:21:04;;;;;;;10.27;4.40;;;;;;;4.19;54.15;102009.28;5095269;28;20047;-79
2021/03/01 03:24:08;;;;;;;9.35;4.60;;;;;;;4.12;54.16;102002.44;5115201;28;20050;-79
2021/03/01 03:27:12;;;;;;;12.10;5.07;;;;;;;4.16;54.31;102006.72;5102753;28;20047;-77
2021/03/01 03:30:21;;;;;;;7.78;4.00;;;;;;;4.11;54.30;102006.00;5115954;27;20068;-75
2021/03/01 03:33:26;;;;;;;11.35;4.65;;;;;;;4.19;57.09;102009.28;5096699;28;20074;-71
2021/03/01 03:36:35;;;;;;;8.75;4.45;;;;;;;4.18;54.52;102004.00;5102437;28;20047;-73
2021/03/01 03:39:45;;;;;;;8.65;4.10;;;;;;;4.17;54.20;102010.25;5108397;28;20051;-73
2021/03/01 03:42:52;;;;;;;9.27;3.95;;;;;;;4.12;54.48;102002.44;5101970;28;20047;-74
2021/03/01 03:45:59;;;;;;;8.13;4.05;;;;;;;4.10;54.47;102006.91;5081966;28;20043;-74
2021/03/01 03:49:06;;;;;;;6.45;3.90;;;;;;;4.08;54.31;102006.13;5081874;28;20061;-73
2021/03/01 03:52:12;;;;;;;6.03;3.90;;;;;;;4.06;54.59;102000.00;5112013;28;20054;-72
2021/03/01 03:55:21;;;;;;;7.00;3.25;;;;;;;4.09;54.42;102001.69;5099869;28;20076;-74
2021/03/01 03:58:30;;;;;;;6.57;3.17;;;;;;;4.06;54.14;101999.13;5097402;28;20055;-77
2021/03/01 04:01:35;;;;;;;6.88;3.70;;;;;;;3.97;54.66;101995.00;5114629;28;20144;-78
2021/03/01 04:04:40;;;;;;;7.28;3.88;;;;;;;3.98;54.99;101999.38;5101811;28;20073;-72
2021/03/01 04:07:44;;;;;;;7.80;3.90;;;;;;;3.94;55.22;101992.44;5114356;28;20055;-76
2021/03/01 04:10:53;;;;;;;6.85;3.65;;;;;;;3.95;55.12;102007.44;5113739;28;20039;-74
2021/03/01 04:13:59;;;;;;;8.05;3.95;;;;;;;3.94;55.28;101992.44;5101543;28;20047;-77
2021/03/01 04:17:07;;;;;;;6.72;3.97;;;;;;;3.91;55.12;101998.72;5114406;28;20058;-76
2021/03/01 04:20:14;;;;;;;7.47;3.90;;;;;;;3.92;55.24;101994.28;5099506;28;20061;-77
2021/03/01 04:23:19;;;;;;;7.50;3.60;;;;;;;3.89;55.33;102000.59;5114302;28;20047;-77
2021/03/01 04:26:24;;;;;;;8.00;3.78;;;;;;;3.83;55.42;102002.56;5095919;28;20517;-78
2021/03/01 04:29:30;;;;;;;5.10;3.53;;;;;;;3.79;55.63;101995.63;5098887;28;20050;-77
2021/03/01 04:32:40;;;;;;;6.80;3.78;;;;;;;3.76;56.15;101998.38;5101651;28;20054;-78
2021/03/01 04:35:48;;;;;;;7.18;3.72;;;;;;;3.79;56.03;102000.94;5114174;28;20042;-77
2021/03/01 04:38:52;;;;;;;7.25;3.63;;;;;;;3.73;55.92;102001.13;5114177;28;20064;-79
2021/03/01 04:41:56;;;;;;;6.38;3.63;;;;;;;3.71;55.94;102001.19;5095147;28;20051;-75
2021/03/01 04:45:01;;;;;;;8.50;3.88;;;;;;;3.66;56.19;102004.91;5093725;28;20071;-75
2021/03/01 04:48:07;;;;;;;6.47;3.53;;;;;;;3.68;56.16;102005.75;5081502;28;20063;-74
2021/03/01 04:51:12;;;;;;;8.73;4.07;;;;;;;3.63;56.55;102005.03;5093624;28;20118;-77
2021/03/01 04:54:17;;;;;;;6.65;3.67;;;;;;;3.68;56.17;101997.78;5093617;28;20470;-78
2021/03/01 04:57:22;;;;;;;6.95;3.67;;;;;;;3.66;56.50;101996.94;5093672;28;20052;-76
2021/03/01 05:00:27;;;;;;;6.32;3.92;;;;;;;3.64;56.19;102004.09;5068926;28;20051;-79
2021/03/01 05:03:32;;;;;;;10.27;4.28;;;;;;;3.64;56.32;101997.00;5093477;28;20049;-77
2021/03/01 05:06:38;;;;;;;6.03;3.78;;;;;;;3.64;56.16;102001.44;5093779;28;20055;-79
2021/03/01 05:09:43;;;;;;;9.25;4.60;;;;;;;3.66;56.22;102004.91;5082874;28;20039;-79
2021/03/01 05:12:47;;;;;;;6.28;3.85;;;;;;;3.65;56.16;102004.06;5112814;28;20054;-75
2021/03/01 05:15:51;;;;;;;7.40;3.95;;;;;;;3.69;56.00;101996.84;5101971;28;20050;-74
2021/03/01 05:18:56;;;;;;;9.75;3.97;;;;;;;3.62;56.37;102000.63;5115174;28;20059;-74
2021/03/01 05:22:00;;;;;;;7.20;3.80;;;;;;;3.63;56.31;101999.72;5103363;28;20391;-76
2021/03/01 05:25:05;;;;;;;10.30;3.97;;;;;;;3.66;56.28;102002.25;5116126;28;20097;-77
2021/03/01 05:28:09;;;;;;;7.78;4.53;;;;;;;3.62;56.04;102000.63;5113840;28;20046;-76
2021/03/01 05:31:14;;;;;;;8.02;4.68;;;;;;;3.61;56.49;101993.56;5101859;28;20043;-80
2021/03/01 05:34:18;;;;;;;7.47;4.00;;;;;;;3.59;56.41;101996.28;5115500;28;20046;-73
2021/03/01 05:37:23;;;;;;;7.95;3.50;;;;;;;3.56;56.58;101996.38;5115601;28;20042;-76
2021/03/01 05:40:27;;;;;;;10.27;4.53;;;;;;;3.60;56.47;101994.50;5103540;28;20050;-79
2021/03/01 05:43:32;;;;;;;6.07;3.92;;;;;;;3.59;56.41;101998.06;5114039;28;20509;-80
2021/03/01 05:46:37;;;;;;;8.55;4.15;;;;;;;3.65;56.45;102003.19;5114622;28;20055;-80
2021/03/01 05:49:42;;;;;;;8.48;4.00;;;;;;;3.64;56.05;102006.75;5115292;28;20038;-77
2021/03/01 05:52:57;;;;;;;7.65;3.40;;;;;;;3.67;56.13;102001.34;5102402;28;20047;-79
2021/03/01 05:56:01;;;;;;;7.00;3.90;;;;;;;3.64;56.58;102012.06;5115149;28;20050;-79
2021/03/01 05:59:06;;;;;;;6.70;4.43;;;;;;;3.68;56.34;102014.56;5115785;28;20045;-77
2021/03/01 06:02:10;;;;;;;8.13;4.80;;;;;;;3.67;56.37;102022.59;5113504;28;20047;-79
2021/03/01 06:05:16;;;;;;;54.30;32.80;;;;;;;3.77;56.27;102021.38;5113991;28;20042;-81
2021/03/01 06:08:21;;;;;;;19.20;10.73;;;;;;;3.83;56.18;102015.84;5114457;28;20046;-81
2021/03/01 06:11:25;;;;;;;8.73;4.55;;;;;;;3.91;55.94;102024.41;5115396;28;20042;-77
2021/03/01 06:14:31;;;;;;;6.13;4.00;;;;;;;3.97;55.40;102023.34;5113304;28;20042;-81
2021/03/01 06:17:35;;;;;;;8.18;4.00;;;;;;;3.99;55.42;102026.81;5113820;28;20046;-77
2021/03/01 06:20:41;;;;;;;7.18;3.72;;;;;;;4.07;55.37;102028.31;5102112;28;20047;-81
2021/03/01 06:23:46;;;;;;;7.40;4.05;;;;;;;4.28;54.59;102024.03;5115126;28;20047;-77
2021/03/01 06:26:57;;;;;;;7.78;3.80;;;;;;;4.40;54.08;102027.13;5113362;28;20047;-79
2021/03/01 06:30:06;;;;;;;6.53;3.92;;;;;;;4.43;54.30;102029.66;5114656;28;20047;-81
2021/03/01 06:33:14;;;;;;;6.22;3.55;;;;;;;4.63;53.74;102036.94;5112814;28;20050;-81
2021/03/01 06:36:18;;;;;;;8.70;4.18;;;;;;;4.86;53.11;102038.75;5114110;28;20046;-75
2021/03/01 06:39:25;;;;;;;8.20;4.40;;;;;;;5.07;52.78;102038.78;5116040;28;20051;-74
2021/03/01 06:42:30;;;;;;;10.93;4.50;;;;;;;5.53;51.54;102045.84;5103401;28;20493;-77
2021/03/01 06:45:35;;;;;;;7.80;4.20;;;;;;;6.12;50.29;102047.88;5115835;28;20050;-74
2021/03/01 06:48:41;;;;;;;10.93;4.18;;;;;;;6.70;48.61;102048.88;5115683;28;20386;-76
2021/03/01 06:51:47;;;;;;;10.68;4.28;;;;;;;7.05;47.43;102054.34;5102702;28;20615;-74
2021/03/01 06:54:51;;;;;;;15.88;4.65;;;;;;;7.29;47.22;102055.00;5094761;28;20047;-73
2021/03/01 06:57:57;;;;;;;15.23;4.43;;;;;;;7.59;46.72;102068.72;5095428;28;20055;-72
2021/03/01 07:01:08;;;;;;;14.88;3.90;;;;;;;7.61;46.91;102072.16;5082271;28;20475;-73
2021/03/01 07:04:27;;;;;;;10.60;4.00;;;;;;;8.20;45.73;102075.44;5101709;28;20043;-72
2021/03/01 07:07:36;;;;;;;8.98;3.80;;;;;;;8.21;46.08;102077.19;5102164;28;20063;-76
2021/03/01 07:10:41;;;;;;;9.73;4.20;;;;;;;8.44;46.11;102082.25;5102582;27;20051;-74
2021/03/01 07:13:47;;;;;;;11.93;3.97;;;;;;;8.56;45.95;102077.22;5112565;27;20055;-74
2021/03/01 07:16:54;;;;;;;13.05;4.28;;;;;;;8.78;45.95;102070.66;5113400;28;20509;-78
2021/03/01 07:20:00;;;;;;;12.23;4.50;;;;;;;9.68;44.21;102070.09;5082029;28;20047;-77
2021/03/01 07:23:06;;;;;;;13.45;4.38;;;;;;;10.05;43.03;102076.88;5094534;28;20055;-75
2021/03/01 07:26:12;;;;;;;9.75;4.55;;;;;;;10.50;42.01;102077.84;5095232;28;20051;-83
2021/03/01 07:29:19;;;;;;;8.18;4.30;;;;;;;11.10;40.97;102077.66;5093221;27;20046;-73
2021/03/01 07:32:27;;;;;;;16.73;4.10;;;;;;;11.50;40.39;102085.88;5134773;27;20062;-72
2021/03/01 07:35:32;;;;;;;9.02;4.40;;;;;;;12.07;39.36;102074.00;5135247;27;20042;-78
2021/03/01 07:38:36;;;;;;;11.73;3.72;;;;;;;12.16;39.09;102077.94;5135355;27;20062;-74
2021/03/01 07:41:40;;;;;;;10.50;4.57;;;;;;;11.46;40.75;102074.44;5135213;27;20050;-71
2021/03/01 07:44:47;;;;;;;9.55;4.40;;;;;;;11.53;40.55;102080.31;5135352;27;20042;-72
2021/03/01 07:47:52;;;;;;;13.60;4.65;;;;;;;11.23;41.27;102084.94;5135266;27;20401;-72
2021/03/01 07:50:56;;;;;;;13.18;4.72;;;;;;;12.65;39.52;102081.72;5135211;27;20050;-72
2021/03/01 07:54:00;;;;;;;11.27;4.60;;;;;;;15.77;33.29;102071.44;5122511;27;20062;-73
2021/03/01 07:57:07;;;;;;;15.45;4.57;;;;;;;18.40;28.68;102067.03;5094294;28;20399;-72
2021/03/01 08:00:30;;;;;;;14.23;4.20;;;;;;;21.68;24.39;102055.47;5081845;28;20489;-72
2021/03/01 08:03:37;;;;;;;10.90;4.53;;;;;;;26.05;20.02;102055.84;5093420;28;20055;-78
2021/03/01 08:06:58;;;;;;;11.75;4.20;;;;;;;30.98;15.96;102048.13;5094178;28;20071;-74
2021/03/01 08:10:04;;;;;;;8.43;3.83;;;;;;;32.62;14.27;102044.97;5093306;28;20086;-74
2021/03/01 08:13:10;;;;;;;11.45;3.55;;;;;;;34.15;13.03;102053.00;5093734;28;20047;-75
2021/03/01 08:16:23;;;;;;;11.88;3.80;;;;;;;36.36;12.02;102053.56;5093754;28;20054;-75
2021/03/01 08:19:41;;;;;;;5.72;3.22;;;;;;;37.39;11.03;102060.63;5069918;28;20514;-75
2021/03/01 08:26:07;;;;;;;10.03;4.37;;;;;;;38.38;10.45;102058.50;5093661;28;20051;-75
2021/03/01 08:29:16;;;;;;;10.65;4.10;;;;;;;38.26;11.08;102052.28;5094157;28;20610;-75
2021/03/01 08:32:20;;;;;;;12.48;3.67;;;;;;;38.41;10.25;102054.31;5091199;28;20054;-73
2021/03/01 08:35:25;;;;;;;7.50;3.65;;;;;;;38.71;11.15;102059.09;5114152;28;20055;-73
2021/03/01 08:38:47;;;;;;;13.85;4.43;;;;;;;40.23;11.86;102061.22;5101400;28;20101;-73
2021/03/01 08:41:51;;;;;;;7.70;4.10;;;;;;;40.27;11.04;102058.69;5101547;28;20058;-72
2021/03/01 08:44:55;;;;;;;7.30;3.55;;;;;;;41.39;10.19;102057.44;5114823;28;20394;-72
2021/03/01 08:48:05;;;;;;;9.35;3.42;;;;;;;40.88;10.10;102053.44;5118021;28;20047;-72
2021/03/01 08:51:10;;;;;;;8.80;3.60;;;;;;;40.15;10.84;102047.75;5117860;28;20149;-70
2021/03/01 08:54:27;;;;;;;6.63;3.55;;;;;;;39.35;10.88;102046.13;5117403;28;20054;-73
2021/03/01 08:57:32;;;;;;;10.43;3.70;;;;;;;39.46;10.64;102049.72;5105457;28;20054;-71
2021/03/01 09:00:38;;;;;;;8.68;3.63;;;;;;;39.45;11.07;102042.44;5117992;28;20050;-74
2021/03/01 09:03:44;;;;;;;9.63;3.10;;;;;;;38.31;11.91;102034.63;5105252;28;20137;-72
2021/03/01 09:06:49;;;;;;;7.40;3.85;;;;;;;38.60;11.61;102043.34;5117835;28;20051;-72
2021/03/01 09:09:53;;;;;;;10.50;3.47;;;;;;;39.26;11.00;102047.00;5095720;28;20051;-72
2021/03/01 09:12:57;;;;;;;12.63;3.65;;;;;;;38.07;12.07;102041.88;5097056;28;20063;-73
2021/03/01 09:16:23;;;;;;;6.70;3.67;;;;;;;37.09;12.43;102047.22;5096748;28;20047;-72
2021/03/01 09:19:33;;;;;;;10.02;3.83;;;;;;;37.15;11.80;102051.75;5096920;28;20355;-73
2021/03/01 09:22:44;;;;;;;8.23;4.20;;;;;;;37.71;11.85;102044.50;5096786;28;20171;-71
2021/03/01 09:25:48;;;;;;;6.90;3.97;;;;;;;36.75;11.77;102036.56;5096878;28;20410;-72
2021/03/01 09:28:58;;;;;;;8.50;3.92;;;;;;;37.00;12.65;102042.41;5097189;28;20391;-76
2021/03/01 09:32:02;;;;;;;5.38;3.70;;;;;;;36.72;11.96;102045.50;5095671;28;20047;-72
2021/03/01 09:35:22;;;;;;;7.13;4.03;;;;;;;35.05;12.73;102051.84;5095072;28;20047;-72
2021/03/01 09:38:27;;;;;;;12.27;4.22;;;;;;;34.12;13.46;102057.13;5096166;28;20055;-72
2021/03/01 09:41:39;;;;;;;8.48;4.38;;;;;;;33.79;13.49;102054.16;5096704;28;20144;-73
2021/03/01 09:44:44;;;;;;;7.95;4.53;;;;;;;33.50;13.56;102050.47;5096646;28;20047;-72
2021/03/01 09:47:51;;;;;;;7.13;4.82;;;;;;;31.63;15.09;102055.75;5096556;28;20055;-72
2021/03/01 09:50:57;;;;;;;8.30;4.60;;;;;;;29.39;16.27;102054.75;5097373;28;20055;-72
2021/03/01 09:54:06;;;;;;;8.93;5.78;;;;;;;27.47;17.65;102057.38;5096231;28;20051;-71
2021/03/01 09:57:11;;;;;;;9.20;5.70;;;;;;;25.05;20.04;102060.19;5094625;28;20133;-71
2021/03/01 10:00:20;;;;;;;7.53;5.30;;;;;;;22.99;21.37;102067.31;5096544;28;20052;-71
2021/03/01 10:03:34;;;;;;;10.68;6.35;;;;;;;21.62;23.19;102064.38;5095594;28;20047;-72
2021/03/01 10:06:42;;;;;;;11.57;5.93;;;;;;;20.42;24.55;102070.69;5095450;28;20082;-71
2021/03/01 10:09:48;;;;;;;13.00;6.55;;;;;;;19.39;26.30;102064.72;5113277;28;20062;-71
2021/03/01 10:12:52;;;;;;;9.85;6.82;;;;;;;18.58;27.56;102066.22;5116293;28;20485;-73
2021/03/01 10:15:56;;;;;;;9.85;6.13;;;;;;;18.23;28.50;102067.75;5116455;28;20055;-71
2021/03/01 10:19:15;;;;;;;9.30;6.97;;;;;;;17.93;27.03;102071.44;5116270;28;20055;-71
2021/03/01 10:22:19;;;;;;;9.80;6.43;;;;;;;17.96;27.46;102069.31;5116316;28;20046;-71
2021/03/01 10:25:40;;;;;;;9.60;6.30;;;;;;;17.57;26.70;102066.63;5115975;28;20043;-71
2021/03/01 10:28:52;;;;;;;9.65;5.85;;;;;;;17.53;27.59;102061.47;5103401;28;20481;-71
2021/03/01 10:32:00;;;;;;;13.85;7.05;;;;;;;17.25;29.07;102070.34;5115935;28;20043;-74
2021/03/01 10:35:17;;;;;;;10.00;7.10;;;;;;;16.82;28.94;102064.22;5118603;27;20418;-80
2021/03/01 10:38:21;;;;;;;9.85;6.82;;;;;;;16.50;29.31;102069.69;5136231;27;20050;-74
2021/03/01 10:41:31;;;;;;;10.85;6.53;;;;;;;16.15;29.97;102066.38;5136561;27;20062;-72
2021/03/01 10:44:36;;;;;;;9.38;5.97;;;;;;;16.05;30.58;102071.72;5136366;27;20061;-73
2021/03/01 10:47:40;;;;;;;9.93;6.28;;;;;;;16.13;30.50;102071.06;5136282;27;20042;-71
2021/03/01 10:50:44;;;;;;;12.65;6.57;;;;;;;16.04;29.65;102056.47;5136566;27;20046;-73
2021/03/01 10:53:49;;;;;;;12.90;6.60;;;;;;;15.77;30.08;102066.03;5136223;27;20054;-72
2021/03/01 10:56:54;;;;;;;11.65;6.38;;;;;;;15.56;30.62;102065.91;5123978;27;20050;-71
2021/03/01 10:59:59;;;;;;;11.85;6.93;;;;;;;15.02;30.75;102063.06;5136167;27;20050;-75
2021/03/01 11:03:03;;;;;;;10.30;6.90;;;;;;;15.08;31.67;102059.03;5115033;27;20046;-76
2021/03/01 11:06:08;;;;;;;13.10;6.60;;;;;;;15.18;31.75;102063.59;5115398;28;20152;-71
2021/03/01 11:09:12;;;;;;;15.13;6.60;;;;;;;15.29;31.73;102066.28;5090080;28;20059;-76
2021/03/01 11:12:16;;;;;;;15.13;7.47;;;;;;;15.23;31.61;102058.69;5094237;28;20047;-77
2021/03/01 11:15:20;;;;;;;13.55;7.30;;;;;;;15.17;31.87;102059.16;5094908;28;20114;-73
2021/03/01 11:18:25;;;;;;;13.00;6.30;;;;;;;14.82;30.93;102061.06;5095005;28;20075;-72
2021/03/01 11:21:29;;;;;;;11.57;6.30;;;;;;;14.95;31.32;102059.13;5095020;28;20063;-72
2021/03/01 11:24:34;;;;;;;13.18;7.75;;;;;;;14.77;32.13;102052.47;5094842;28;20051;-80
2021/03/01 11:27:38;;;;;;;13.98;6.75;;;;;;;14.65;31.63;102053.41;5094783;28;20047;-73
2021/03/01 11:30:43;;;;;;;12.85;6.68;;;;;;;14.69;31.91;102047.66;5094887;28;20047;-75
2021/03/01 11:33:48;;;;;;;14.20;6.82;;;;;;;14.63;32.03;102042.75;5094614;28;20051;-74
2021/03/01 11:36:52;;;;;;;8.63;6.07;;;;;;;14.41;30.85;102037.28;5094489;28;20071;-73
2021/03/01 11:39:57;;;;;;;9.93;5.50;;;;;;;14.34;31.50;102044.13;5094568;28;20047;-75
2021/03/01 11:43:01;;;;;;;9.45;5.80;;;;;;;14.37;31.09;102034.94;5093605;28;20059;-77
2021/03/01 11:46:06;;;;;;;9.38;5.93;;;;;;;14.07;30.66;102032.69;5094545;28;20517;-71
2021/03/01 11:49:10;;;;;;;10.63;6.13;;;;;;;14.00;31.14;102032.28;5093648;28;20067;-72
2021/03/01 11:52:14;;;;;;;11.50;6.20;;;;;;;14.00;31.30;102028.75;5094095;28;20055;-73
2021/03/01 11:55:19;;;;;;;10.32;6.07;;;;;;;14.13;31.91;102024.97;5093949;28;20043;-76
2021/03/01 11:58:23;;;;;;;9.70;5.93;;;;;;;14.10;30.25;102019.81;5093846;28;20063;-78
2021/03/01 12:01:27;;;;;;;7.88;5.15;;;;;;;14.23;29.98;102014.34;5094022;28;20051;-72
2021/03/01 12:04:31;;;;;;;8.77;5.88;;;;;;;14.34;31.09;102011.72;5093912;28;20059;-72
2021/03/01 12:07:39;;;;;;;8.73;5.93;;;;;;;14.40;31.30;102000.41;5094117;28;20051;-75
2021/03/01 12:10:43;;;;;;;8.70;5.85;;;;;;;14.31;30.47;102001.16;5093896;28;20051;-74
2021/03/01 12:13:47;;;;;;;9.15;6.00;;;;;;;14.18;30.75;102001.19;5094051;28;20050;-75
2021/03/01 12:16:52;;;;;;;13.70;6.70;;;;;;;14.09;31.50;101999.22;5093979;28;20052;-71
2021/03/01 12:19:56;;;;;;;12.10;6.43;;;;;;;14.09;32.38;101996.50;5093827;28;20063;-80
2021/03/01 12:23:00;;;;;;;11.65;6.70;;;;;;;14.03;31.61;101991.56;5092849;28;20051;-79
2021/03/01 12:26:04;;;;;;;10.52;7.10;;;;;;;14.07;31.98;101984.09;5093961;28;20043;-76
2021/03/01 12:29:09;;;;;;;10.32;7.68;;;;;;;14.17;32.92;101979.72;5093846;28;20059;-74
2021/03/01 12:32:13;;;;;;;11.98;7.47;;;;;;;14.19;32.94;101972.34;5093756;28;20051;-72
2021/03/01 12:35:17;;;;;;;11.85;7.13;;;;;;;14.16;33.13;101978.84;5093790;28;20387;-73
2021/03/01 12:38:23;;;;;;;14.35;7.30;;;;;;;14.22;32.96;101972.97;5081387;28;20047;-81
2021/03/01 12:41:27;;;;;;;15.43;8.35;;;;;;;14.22;33.92;101972.97;5093261;28;20039;-72
2021/03/01 12:44:31;;;;;;;11.50;7.78;;;;;;;14.26;33.25;101970.91;5071135;28;20047;-72
2021/03/01 12:47:35;;;;;;;13.20;8.20;;;;;;;14.09;33.42;101963.22;5071604;28;20067;-70
2021/03/01 12:50:40;;;;;;;11.35;7.28;;;;;;;14.16;33.40;101959.94;5073450;28;20064;-70
2021/03/01 12:53:44;;;;;;;11.48;8.10;;;;;;;14.21;32.89;101954.19;5073312;28;20067;-71
2021/03/01 12:56:49;;;;;;;13.07;8.35;;;;;;;14.26;33.31;101954.69;5073455;28;20071;-72
2021/03/01 12:59:54;;;;;;;10.25;6.43;;;;;;;14.18;29.78;101949.00;5073426;28;20039;-72
2021/03/01 13:02:59;;;;;;;9.75;6.20;;;;;;;14.15;30.29;101943.84;5073620;28;20380;-72
2021/03/01 13:06:04;;;;;;;13.38;6.18;;;;;;;14.19;30.30;101938.09;5073379;28;20088;-70
2021/03/01 13:09:08;;;;;;;14.20;6.38;;;;;;;14.23;30.19;101946.81;5071994;28;20051;-71
2021/03/01 13:12:13;;;;;;;12.65;6.57;;;;;;;14.11;30.18;101940.53;5072481;28;20039;-70
2021/03/01 13:15:17;;;;;;;13.00;6.28;;;;;;;14.13;29.80;101952.06;5073348;28;20044;-70
2021/03/01 13:18:21;;;;;;;11.75;6.32;;;;;;;14.13;30.14;101945.81;5073663;28;20047;-71
2021/03/01 13:21:26;;;;;;;10.77;6.65;;;;;;;14.08;31.02;101935.38;5073240;28;20063;-71
2021/03/01 13:24:30;;;;;;;8.60;6.65;;;;;;;14.05;31.75;101938.28;5073136;28;20079;-70
2021/03/01 13:27:34;;;;;;;10.18;6.90;;;;;;;14.03;31.70;101934.00;5073141;28;20059;-70
2021/03/01 13:30:39;;;;;;;15.98;7.45;;;;;;;14.06;32.41;101933.75;5073183;28;20068;-70
2021/03/01 13:33:45;;;;;;;13.10;7.20;;;;;;;14.06;32.17;101931.06;5075388;28;20051;-71
2021/03/01 13:36:49;;;;;;;11.43;7.80;;;;;;;14.07;32.31;101932.78;5080587;28;20501;-70
2021/03/01 13:39:53;;;;;;;12.93;7.45;;;;;;;14.06;31.85;101933.75;5085029;28;20066;-70
2021/03/01 13:42:58;;;;;;;10.65;7.15;;;;;;;14.11;32.80;101931.56;5118157;27;20051;-70
2021/03/01 13:46:02;;;;;;;12.73;7.68;;;;;;;14.06;32.53;101926.53;5096746;28;20055;-71
2021/03/01 13:49:06;;;;;;;10.15;6.75;;;;;;;14.16;32.32;101932.06;5096516;28;20055;-70
2021/03/01 13:52:11;;;;;;;10.38;7.10;;;;;;;14.08;32.38;101926.41;5096372;28;20378;-72
2021/03/01 13:55:16;;;;;;;12.23;7.57;;;;;;;14.09;32.74;101931.69;5096451;28;20063;-72
2021/03/01 13:58:21;;;;;;;10.20;7.00;;;;;;;14.18;33.19;101927.41;5095657;28;20051;-71
2021/03/01 14:01:25;;;;;;;11.60;7.03;;;;;;;14.24;31.90;101924.25;5093053;28;20055;-71
2021/03/01 14:04:30;;;;;;;12.05;7.30;;;;;;;14.33;31.92;101927.13;5096079;28;20079;-72
2021/03/01 14:07:35;;;;;;;11.13;7.40;;;;;;;14.28;31.58;101923.00;5096249;28;20055;-72
2021/03/01 14:10:39;;;;;;;13.60;7.15;;;;;;;14.23;30.97;101919.81;5083734;28;20047;-70
2021/03/01 14:13:43;;;;;;;12.38;7.07;;;;;;;14.20;30.42;101923.59;5075578;28;20047;-71
2021/03/01 14:16:47;;;;;;;11.25;6.65;;;;;;;14.14;31.06;101925.94;5075935;28;20048;-74
2021/03/01 14:19:52;;;;;;;9.90;6.57;;;;;;;14.15;30.29;101925.81;5075882;28;20067;-78
2021/03/01 14:22:56;;;;;;;10.95;7.25;;;;;;;14.15;30.93;101912.31;5075737;28;20392;-72
2021/03/01 14:26:01;;;;;;;12.02;7.50;;;;;;;14.08;30.73;101921.00;5081762;28;20051;-74
2021/03/01 14:29:05;;;;;;;10.90;6.93;;;;;;;14.01;30.69;101914.34;5095927;28;20055;-78
2021/03/01 14:32:09;;;;;;;11.45;7.00;;;;;;;14.05;31.30;101915.81;5095064;28;20399;-76